createdAt,value
2017-08-16T00:00:01.658Z,1012.5
2017-08-16T00:01:03.405Z,1012.5
2017-08-16T00:02:05.051Z,1012.6
2017-08-16T00:03:06.736Z,1012.6
2017-08-16T00:04:08.390Z,1012.5
2017-08-16T00:05:10.136Z,1012.5
2017-08-16T00:06:11.791Z,1012.5
2017-08-16T00:07:13.603Z,1012.5
2017-08-16T00:08:15.258Z,1012.5
2017-08-16T00:09:17.048Z,1012.5
2017-08-16T00:10:18.702Z,1012.5
2017-08-16T00:11:20.415Z,1012.5
2017-08-16T00:12:22.072Z,1012.4
2017-08-16T00:13:23.812Z,1012.5
2017-08-16T00:14:25.485Z,1012.5
2017-08-16T00:15:27.189Z,1012.5
2017-08-16T00:16:28.845Z,1012.5
2017-08-16T00:17:30.606Z,1012.6
2017-08-16T00:18:32.254Z,1012.5
2017-08-16T00:19:33.972Z,1012.6
2017-08-16T00:20:35.624Z,1012.6
2017-08-16T00:21:37.371Z,1012.7
2017-08-16T00:22:39.082Z,1012.7
2017-08-16T00:23:40.795Z,1012.7
2017-08-16T00:24:42.455Z,1012.7
2017-08-16T00:25:44.189Z,1012.7
2017-08-16T00:26:45.855Z,1012.7
2017-08-16T00:27:47.538Z,1012.7
2017-08-16T00:28:49.189Z,1012.6
2017-08-16T00:29:50.940Z,1012.7
2017-08-16T00:30:52.586Z,1012.7
2017-08-16T00:31:54.324Z,1012.7
2017-08-16T00:32:55.972Z,1012.7
2017-08-16T00:33:57.730Z,1012.7
2017-08-16T00:34:59.376Z,1012.7
2017-08-16T00:36:01.110Z,1012.7
2017-08-16T00:37:02.760Z,1012.7
2017-08-16T00:38:04.512Z,1012.7
2017-08-16T00:39:06.199Z,1012.7
2017-08-16T00:40:07.899Z,1012.7
2017-08-16T00:41:09.547Z,1012.8
2017-08-16T00:42:12.313Z,1012.8
2017-08-16T00:43:13.957Z,1012.8
2017-08-16T00:44:15.717Z,1012.8
2017-08-16T00:45:17.364Z,1012.8
2017-08-16T00:46:19.093Z,1012.8
2017-08-16T00:47:20.742Z,1012.8
2017-08-16T00:48:22.490Z,1012.7
2017-08-16T00:49:24.150Z,1012.8
2017-08-16T00:50:25.903Z,1012.8
2017-08-16T00:51:27.598Z,1012.8
2017-08-16T00:52:29.270Z,1012.8
2017-08-16T00:53:30.951Z,1012.9
2017-08-16T00:54:32.663Z,1012.8
2017-08-16T00:55:34.314Z,1012.9
2017-08-16T00:56:36.058Z,1012.9
2017-08-16T00:57:37.713Z,1012.9
2017-08-16T00:58:39.453Z,1012.9
2017-08-16T00:59:41.133Z,1012.9
2017-08-16T01:00:42.886Z,1012.9
2017-08-16T01:01:44.533Z,1012.9
2017-08-16T01:02:46.256Z,1013.0
2017-08-16T01:03:47.951Z,1013.0
2017-08-16T01:04:49.633Z,1013.0
2017-08-16T01:05:51.284Z,1013.1
2017-08-16T01:06:53.035Z,1013.1
2017-08-16T01:07:54.678Z,1013.1
2017-08-16T01:08:56.409Z,1013.1
2017-08-16T01:09:58.058Z,1013.1
2017-08-16T01:10:59.819Z,1013.1
2017-08-16T01:12:01.478Z,1013.1
2017-08-16T01:13:03.201Z,1013.1
2017-08-16T01:14:04.854Z,1013.1
2017-08-16T01:15:06.614Z,1013.1
2017-08-16T01:16:08.261Z,1013.1
2017-08-16T01:17:09.972Z,1013.1
2017-08-16T01:18:11.625Z,1013.2
2017-08-16T01:19:13.362Z,1013.1
2017-08-16T01:20:15.041Z,1013.1
2017-08-16T01:21:16.772Z,1013.2
2017-08-16T01:22:18.426Z,1013.2
2017-08-16T01:23:20.158Z,1013.2
2017-08-16T01:24:21.810Z,1013.2
2017-08-16T01:25:23.554Z,1013.2
2017-08-16T01:26:25.206Z,1013.3
2017-08-16T01:27:26.969Z,1013.2
2017-08-16T01:28:28.602Z,1013.3
2017-08-16T01:29:30.355Z,1013.3
2017-08-16T01:30:31.994Z,1013.3
2017-08-16T01:31:33.731Z,1013.3
2017-08-16T01:32:35.384Z,1013.3
2017-08-16T01:33:37.128Z,1013.3
2017-08-16T01:34:38.786Z,1013.4
2017-08-16T01:35:40.554Z,1013.4
2017-08-16T01:36:42.210Z,1013.4
2017-08-16T01:37:43.872Z,1013.4
2017-08-16T01:38:45.516Z,1013.4
2017-08-16T01:39:47.186Z,1013.4
2017-08-16T01:40:48.865Z,1013.4
2017-08-16T01:41:50.606Z,1013.4
2017-08-16T01:42:52.252Z,1013.4
2017-08-16T01:43:53.981Z,1013.4
2017-08-16T01:44:55.628Z,1013.4
2017-08-16T01:45:57.373Z,1013.5
2017-08-16T01:46:59.085Z,1013.4
2017-08-16T01:48:00.804Z,1013.4
2017-08-16T01:49:02.475Z,1013.4
2017-08-16T01:50:04.159Z,1013.4
2017-08-16T01:51:05.818Z,1013.4
2017-08-16T01:52:07.545Z,1013.4
2017-08-16T01:53:09.192Z,1013.4
2017-08-16T01:54:10.956Z,1013.5
2017-08-16T01:55:12.612Z,1013.4
2017-08-16T01:56:14.332Z,1013.5
2017-08-16T01:57:15.984Z,1013.5
2017-08-16T01:58:17.716Z,1013.5
2017-08-16T01:59:19.367Z,1013.4
2017-08-16T02:00:21.129Z,1013.4
2017-08-16T02:01:22.772Z,1013.4
2017-08-16T02:02:24.507Z,1013.4
2017-08-16T02:03:26.169Z,1013.4
2017-08-16T02:04:27.897Z,1013.4
2017-08-16T02:05:29.590Z,1013.4
2017-08-16T02:06:31.291Z,1013.4
2017-08-16T02:07:32.945Z,1013.4
2017-08-16T02:08:34.709Z,1013.5
2017-08-16T02:09:36.352Z,1013.4
2017-08-16T02:10:38.075Z,1013.4
2017-08-16T02:11:39.801Z,1013.4
2017-08-16T02:12:41.571Z,1013.4
2017-08-16T02:13:43.209Z,1013.4
2017-08-16T02:14:44.963Z,1013.4
2017-08-16T02:15:46.771Z,1013.4
2017-08-16T02:16:48.456Z,1013.5
2017-08-16T02:17:50.103Z,1013.5
2017-08-16T02:18:51.865Z,1013.5
2017-08-16T02:19:53.521Z,1013.5
2017-08-16T02:20:55.243Z,1013.5
2017-08-16T02:21:56.901Z,1013.5
2017-08-16T02:22:58.623Z,1013.5
2017-08-16T02:24:00.279Z,1013.5
2017-08-16T02:25:02.040Z,1013.5
2017-08-16T02:26:03.689Z,1013.5
2017-08-16T02:27:05.470Z,1013.6
2017-08-16T02:28:07.133Z,1013.6
2017-08-16T02:29:08.808Z,1013.6
2017-08-16T02:30:10.469Z,1013.6
2017-08-16T02:31:12.220Z,1013.6
2017-08-16T02:32:13.873Z,1013.6
2017-08-16T02:33:15.588Z,1013.6
2017-08-16T02:34:17.248Z,1013.6
2017-08-16T02:35:18.979Z,1013.6
2017-08-16T02:36:20.626Z,1013.6
2017-08-16T02:37:22.377Z,1013.6
2017-08-16T02:38:24.032Z,1013.6
2017-08-16T02:39:25.824Z,1013.6
2017-08-16T02:40:27.481Z,1013.6
2017-08-16T02:41:29.172Z,1013.6
2017-08-16T02:42:30.831Z,1013.6
2017-08-16T02:43:32.549Z,1013.6
2017-08-16T02:44:34.219Z,1013.6
2017-08-16T02:45:35.970Z,1013.6
2017-08-16T02:46:37.620Z,1013.6
2017-08-16T02:47:39.352Z,1013.6
2017-08-16T02:48:41.002Z,1013.6
2017-08-16T02:49:42.734Z,1013.6
2017-08-16T02:50:44.395Z,1013.7
2017-08-16T02:51:46.118Z,1013.7
2017-08-16T02:52:47.780Z,1013.7
2017-08-16T02:53:49.561Z,1013.7
2017-08-16T02:54:51.237Z,1013.7
2017-08-16T02:55:52.909Z,1013.7
2017-08-16T02:56:54.594Z,1013.7
2017-08-16T02:57:56.318Z,1013.7
2017-08-16T02:58:57.980Z,1013.8
2017-08-16T02:59:59.709Z,1013.7
2017-08-16T03:01:01.363Z,1013.6
2017-08-16T03:02:03.079Z,1013.6
2017-08-16T03:03:06.343Z,1013.6
2017-08-16T03:04:08.001Z,1013.7
2017-08-16T03:05:09.656Z,1013.6
2017-08-16T03:06:11.403Z,1013.6
2017-08-16T03:07:13.066Z,1013.7
2017-08-16T03:08:14.787Z,1013.7
2017-08-16T03:09:16.450Z,1013.7
2017-08-16T03:10:18.207Z,1013.8
2017-08-16T03:11:19.855Z,1013.8
2017-08-16T03:12:21.584Z,1013.8
2017-08-16T03:13:23.239Z,1013.7
2017-08-16T03:14:24.980Z,1013.7
2017-08-16T03:15:26.638Z,1013.8
2017-08-16T03:16:28.385Z,1013.7
2017-08-16T03:17:30.049Z,1013.8
2017-08-16T03:18:31.751Z,1013.8
2017-08-16T03:19:33.402Z,1013.8
2017-08-16T03:20:35.159Z,1013.8
2017-08-16T03:21:36.838Z,1013.8
2017-08-16T03:22:38.534Z,1013.8
2017-08-16T03:23:40.209Z,1013.9
2017-08-16T03:24:41.930Z,1013.9
2017-08-16T03:25:43.580Z,1013.9
2017-08-16T03:26:45.321Z,1013.9
2017-08-16T03:27:47.026Z,1013.9
2017-08-16T03:28:48.735Z,1013.9
2017-08-16T03:29:50.414Z,1013.9
2017-08-16T03:30:52.108Z,1013.9
2017-08-16T03:31:53.841Z,1013.9
2017-08-16T03:32:55.657Z,1013.9
2017-08-16T03:33:57.355Z,1013.9
2017-08-16T03:34:59.124Z,1013.9
2017-08-16T03:36:00.780Z,1014.0
2017-08-16T03:37:05.394Z,1013.9
2017-08-16T03:38:07.021Z,1014.0
2017-08-16T03:39:08.768Z,1014.0
2017-08-16T03:40:10.447Z,1014.0
2017-08-16T03:41:12.161Z,1014.0
2017-08-16T03:42:13.829Z,1014.0
2017-08-16T03:43:15.555Z,1014.0
2017-08-16T03:44:17.214Z,1014.0
2017-08-16T03:45:18.941Z,1014.0
2017-08-16T03:46:20.598Z,1014.0
2017-08-16T03:47:22.322Z,1014.0
2017-08-16T03:48:23.972Z,1014.0
2017-08-16T03:49:25.621Z,1014.0
2017-08-16T03:50:27.353Z,1014.1
2017-08-16T03:51:29.000Z,1014.1
2017-08-16T03:52:30.750Z,1014.0
2017-08-16T03:53:32.457Z,1014.1
2017-08-16T03:54:34.142Z,1014.1
2017-08-16T03:55:35.792Z,1014.1
2017-08-16T03:56:37.527Z,1014.1
2017-08-16T03:57:39.182Z,1014.1
2017-08-16T03:58:40.923Z,1014.1
2017-08-16T03:59:42.572Z,1014.1
2017-08-16T04:00:44.311Z,1014.1
2017-08-16T04:01:45.970Z,1014.2
2017-08-16T04:02:47.705Z,1014.1
2017-08-16T04:03:49.378Z,1014.2
2017-08-16T04:04:51.118Z,1014.2
2017-08-16T04:05:52.842Z,1014.2
2017-08-16T04:06:54.630Z,1014.2
2017-08-16T04:07:56.295Z,1014.3
2017-08-16T04:08:57.993Z,1014.3
2017-08-16T04:09:59.686Z,1014.3
2017-08-16T04:11:01.383Z,1014.3
2017-08-16T04:12:03.031Z,1014.3
2017-08-16T04:13:04.799Z,1014.3
2017-08-16T04:14:06.467Z,1014.3
2017-08-16T04:15:08.181Z,1014.3
2017-08-16T04:16:09.839Z,1014.3
2017-08-16T04:17:11.618Z,1014.3
2017-08-16T04:18:13.265Z,1014.3
2017-08-16T04:19:14.957Z,1014.3
2017-08-16T04:20:16.659Z,1014.3
2017-08-16T04:21:18.352Z,1014.4
2017-08-16T04:22:20.021Z,1014.4
2017-08-16T04:23:21.783Z,1014.4
2017-08-16T04:24:23.436Z,1014.4
2017-08-16T04:25:25.137Z,1014.4
2017-08-16T04:26:26.791Z,1014.4
2017-08-16T04:27:28.522Z,1014.4
2017-08-16T04:28:30.178Z,1014.4
2017-08-16T04:29:32.085Z,1014.5
2017-08-16T04:30:33.741Z,1014.5
2017-08-16T04:31:35.514Z,1014.5
2017-08-16T04:32:37.193Z,1014.5
2017-08-16T04:33:38.911Z,1014.5
2017-08-16T04:34:40.604Z,1014.5
2017-08-16T04:35:42.342Z,1014.6
2017-08-16T04:36:44.156Z,1014.5
2017-08-16T04:37:45.889Z,1014.6
2017-08-16T04:38:47.565Z,1014.6
2017-08-16T04:39:49.280Z,1014.6
2017-08-16T04:40:50.963Z,1014.6
2017-08-16T04:41:52.687Z,1014.7
2017-08-16T04:42:54.353Z,1014.7
2017-08-16T04:43:57.088Z,1014.7
2017-08-16T04:44:58.739Z,1014.7
2017-08-16T04:46:00.515Z,1014.7
2017-08-16T04:47:02.232Z,1014.7
2017-08-16T04:48:03.978Z,1014.8
2017-08-16T04:49:05.706Z,1014.8
2017-08-16T04:50:07.469Z,1014.8
2017-08-16T04:51:09.141Z,1014.8
2017-08-16T04:52:10.860Z,1014.9
2017-08-16T04:53:12.549Z,1014.8
2017-08-16T04:54:14.254Z,1014.8
2017-08-16T04:55:15.965Z,1014.9
2017-08-16T04:56:17.774Z,1014.8
2017-08-16T04:57:19.443Z,1014.9
2017-08-16T04:58:21.136Z,1014.9
2017-08-16T04:59:22.807Z,1014.9
2017-08-16T05:00:24.546Z,1014.9
2017-08-16T05:01:26.293Z,1014.9
2017-08-16T05:02:28.090Z,1014.9
2017-08-16T05:03:29.784Z,1014.9
2017-08-16T05:04:31.445Z,1015.0
2017-08-16T05:05:34.216Z,1015.0
2017-08-16T05:06:35.870Z,1015.0
2017-08-16T05:07:37.607Z,1015.0
2017-08-16T05:08:39.309Z,1015.0
2017-08-16T05:09:55.985Z,1015.0
2017-08-16T05:10:57.645Z,1015.0
2017-08-16T05:12:12.065Z,1015.0
2017-08-16T05:13:14.429Z,1015.0
2017-08-16T05:14:21.966Z,1015.0
2017-08-16T05:15:23.620Z,1015.0
2017-08-16T05:16:30.981Z,1015.0
2017-08-16T05:17:32.661Z,1015.0
2017-08-16T05:18:35.417Z,1015.0
2017-08-16T05:19:37.093Z,1015.0
2017-08-16T05:20:38.822Z,1015.0
2017-08-16T05:21:40.591Z,1015.1
2017-08-16T05:22:44.419Z,1015.1
2017-08-16T05:23:46.043Z,1015.1
2017-08-16T05:24:52.450Z,1015.1
2017-08-16T05:25:54.163Z,1015.1
2017-08-16T05:26:57.891Z,1015.1
2017-08-16T05:27:59.559Z,1015.1
2017-08-16T05:29:01.303Z,1015.1
2017-08-16T05:30:02.957Z,1015.2
2017-08-16T06:09:55.330Z,1015.5
2017-08-16T06:10:57.079Z,1015.5
2017-08-16T06:11:58.729Z,1015.5
2017-08-16T06:13:00.606Z,1015.5
2017-08-16T06:14:02.275Z,1015.6
2017-08-16T06:15:04.004Z,1015.5
2017-08-16T06:16:05.724Z,1015.6
2017-08-16T06:17:07.474Z,1015.6
2017-08-16T06:18:09.218Z,1015.6
2017-08-16T06:19:10.888Z,1015.6
2017-08-16T06:20:12.621Z,1015.6
2017-08-16T06:21:14.412Z,1015.6
2017-08-16T06:22:16.236Z,1015.6
2017-08-16T06:23:17.982Z,1015.6
2017-08-16T06:24:19.670Z,1015.6
2017-08-16T06:25:21.450Z,1015.6
2017-08-16T06:26:23.173Z,1015.6
2017-08-16T06:27:24.912Z,1015.6
2017-08-16T06:28:26.634Z,1015.7
2017-08-16T06:29:28.425Z,1015.6
2017-08-16T06:30:30.165Z,1015.6
2017-08-16T06:31:31.830Z,1015.6
2017-08-16T06:32:33.554Z,1015.7
2017-08-16T06:33:35.222Z,1015.7
2017-08-16T06:34:36.958Z,1015.7
2017-08-16T06:35:38.735Z,1015.7
2017-08-16T06:36:40.404Z,1015.7
2017-08-16T06:37:42.074Z,1015.7
2017-08-16T06:38:43.846Z,1015.7
2017-08-16T06:39:45.618Z,1015.8
2017-08-16T06:40:47.299Z,1015.8
2017-08-16T06:41:49.158Z,1015.7
2017-08-16T06:42:50.918Z,1015.7
2017-08-16T06:43:52.631Z,1015.8
2017-08-16T06:44:54.395Z,1015.8
2017-08-16T06:45:56.213Z,1015.8
2017-08-16T06:46:57.942Z,1015.8
2017-08-16T06:47:59.705Z,1015.8
2017-08-16T06:49:01.453Z,1015.8
2017-08-16T06:50:03.310Z,1015.8
2017-08-16T06:51:05.046Z,1015.8
2017-08-16T06:52:06.894Z,1015.8
2017-08-16T06:53:08.633Z,1015.8
2017-08-16T06:54:10.337Z,1015.8
2017-08-16T06:55:12.104Z,1015.9
2017-08-16T06:56:13.888Z,1015.9
2017-08-16T06:57:15.623Z,1015.9
2017-08-16T06:58:17.294Z,1015.9
2017-08-16T06:59:18.990Z,1015.9
2017-08-16T07:00:20.726Z,1015.9
2017-08-16T07:01:22.491Z,1015.8
2017-08-16T07:02:24.233Z,1015.8
2017-08-16T07:03:26.055Z,1015.8
2017-08-16T07:04:27.752Z,1015.8
2017-08-16T07:05:29.551Z,1015.8
2017-08-16T07:06:31.272Z,1015.8
2017-08-16T07:07:33.033Z,1015.8
2017-08-16T07:08:34.766Z,1015.8
2017-08-16T07:09:36.536Z,1015.8
2017-08-16T07:10:38.267Z,1015.8
2017-08-16T07:11:39.977Z,1015.9
2017-08-16T07:12:41.724Z,1015.9
2017-08-16T07:13:43.591Z,1015.9
2017-08-16T07:14:45.252Z,1015.9
2017-08-16T07:15:47.098Z,1015.8
2017-08-16T07:16:48.905Z,1015.8
2017-08-16T07:17:50.624Z,1015.8
2017-08-16T07:18:52.433Z,1015.8
2017-08-16T07:19:54.101Z,1015.8
2017-08-16T07:20:55.953Z,1015.9
2017-08-16T07:21:57.678Z,1015.8
2017-08-16T07:22:59.566Z,1015.8
2017-08-16T07:24:01.325Z,1015.8
2017-08-16T07:25:03.165Z,1015.8
2017-08-16T07:26:04.919Z,1015.8
2017-08-16T07:27:06.728Z,1015.8
2017-08-16T07:28:08.414Z,1015.9
2017-08-16T07:29:10.263Z,1015.9
2017-08-16T07:30:12.022Z,1015.8
2017-08-16T07:31:13.905Z,1015.8
2017-08-16T07:32:15.680Z,1015.9
2017-08-16T07:33:17.529Z,1015.8
2017-08-16T07:34:19.220Z,1015.9
2017-08-16T07:35:20.961Z,1015.8
2017-08-16T07:36:22.672Z,1015.8
2017-08-16T07:37:24.410Z,1015.8
2017-08-16T07:38:26.258Z,1015.8
2017-08-16T07:39:27.992Z,1015.8
2017-08-16T07:40:29.854Z,1015.8
2017-08-16T07:41:31.507Z,1015.8
2017-08-16T07:42:33.319Z,1015.8
2017-08-16T07:43:35.104Z,1015.8
2017-08-16T07:44:36.874Z,1015.8
2017-08-16T07:45:38.601Z,1015.8
2017-08-16T07:46:40.432Z,1015.9
2017-08-16T07:47:42.211Z,1015.9
2017-08-16T07:48:44.031Z,1015.9
2017-08-16T07:49:45.713Z,1015.8
2017-08-16T07:50:47.550Z,1015.9
2017-08-16T07:51:49.384Z,1015.9
2017-08-16T07:52:51.148Z,1015.9
2017-08-16T07:53:52.881Z,1016.0
2017-08-16T07:55:06.316Z,1015.9
2017-08-16T07:56:08.093Z,1016.0
2017-08-16T07:57:09.830Z,1016.0
2017-08-16T07:58:11.601Z,1016.0
2017-08-16T07:59:13.435Z,1015.9
2017-08-16T08:00:15.164Z,1016.0
2017-08-16T08:01:16.976Z,1015.9
2017-08-16T08:02:18.636Z,1016.0
2017-08-16T08:03:20.470Z,1015.9
2017-08-16T08:04:22.125Z,1015.9
2017-08-16T08:05:23.868Z,1015.9
2017-08-16T08:06:25.745Z,1016.0
2017-08-16T08:07:27.427Z,1016.0
2017-08-16T08:08:29.202Z,1016.0
2017-08-16T08:09:30.938Z,1016.0
2017-08-16T08:10:32.689Z,1016.0
2017-08-16T08:11:34.454Z,1016.0
2017-08-16T08:12:36.311Z,1016.0
2017-08-16T08:13:38.082Z,1016.0
2017-08-16T08:14:39.931Z,1016.0
2017-08-16T08:15:41.610Z,1016.0
2017-08-16T08:16:43.388Z,1016.0
2017-08-16T08:17:45.161Z,1016.0
2017-08-16T08:18:46.843Z,1016.0
2017-08-16T08:19:48.601Z,1016.0
2017-08-16T08:20:50.329Z,1016.0
2017-08-16T08:21:52.068Z,1016.0
2017-08-16T08:22:53.860Z,1016.0
2017-08-16T08:23:55.602Z,1016.0
2017-08-16T08:24:57.476Z,1016.0
2017-08-16T08:25:59.162Z,1016.1
2017-08-16T08:27:01.035Z,1016.0
2017-08-16T08:28:02.800Z,1016.1
2017-08-16T08:29:04.538Z,1016.1
2017-08-16T08:30:06.300Z,1016.1
2017-08-16T08:31:08.057Z,1016.1
2017-08-16T08:32:09.809Z,1016.1
2017-08-16T08:33:11.638Z,1016.1
2017-08-16T08:34:13.323Z,1016.1
2017-08-16T08:35:15.037Z,1016.2
2017-08-16T08:36:16.913Z,1016.2
2017-08-16T08:37:18.650Z,1016.2
2017-08-16T08:38:20.477Z,1016.2
2017-08-16T08:39:22.166Z,1016.2
2017-08-16T08:40:23.990Z,1016.2
2017-08-16T08:41:25.810Z,1016.2
2017-08-16T08:42:27.554Z,1016.2
2017-08-16T08:43:29.351Z,1016.1
2017-08-16T08:44:31.086Z,1016.1
2017-08-16T08:45:32.930Z,1016.1
2017-08-16T08:46:34.656Z,1016.1
2017-08-16T08:47:36.344Z,1016.1
2017-08-16T08:48:38.094Z,1016.2
2017-08-16T08:49:39.895Z,1016.2
2017-08-16T08:50:41.754Z,1016.1
2017-08-16T08:51:43.498Z,1016.2
2017-08-16T08:52:45.176Z,1016.2
2017-08-16T08:53:46.911Z,1016.2
2017-08-16T08:54:48.738Z,1016.2
2017-08-16T08:55:50.558Z,1016.2
2017-08-16T08:56:52.302Z,1016.3
2017-08-16T08:57:53.951Z,1016.2
2017-08-16T08:58:55.735Z,1016.3
2017-08-16T08:59:57.487Z,1016.2
2017-08-16T09:00:59.371Z,1016.3
2017-08-16T09:02:01.095Z,1016.3
2017-08-16T09:03:02.982Z,1016.3
2017-08-16T09:04:04.711Z,1016.3
2017-08-16T09:05:06.527Z,1016.3
2017-08-16T09:06:08.287Z,1016.3
2017-08-16T09:07:12.163Z,1016.3
2017-08-16T09:08:13.921Z,1016.3
2017-08-16T09:09:15.697Z,1016.3
2017-08-16T09:10:17.436Z,1016.3
2017-08-16T09:11:19.263Z,1016.3
2017-08-16T09:12:20.925Z,1016.3
2017-08-16T09:13:22.638Z,1016.3
2017-08-16T09:14:24.403Z,1016.3
2017-08-16T09:15:26.138Z,1016.3
2017-08-16T09:16:27.901Z,1016.3
2017-08-16T09:17:29.628Z,1016.3
2017-08-16T09:18:31.409Z,1016.3
2017-08-16T09:19:33.172Z,1016.3
2017-08-16T09:20:35.005Z,1016.3
2017-08-16T09:21:36.716Z,1016.3
2017-08-16T09:22:38.502Z,1016.3
2017-08-16T09:23:40.271Z,1016.3
2017-08-16T09:24:41.997Z,1016.3
2017-08-16T09:25:43.728Z,1016.3
2017-08-16T09:26:46.516Z,1016.3
2017-08-16T09:27:48.227Z,1016.3
2017-08-16T09:28:49.991Z,1016.3
2017-08-16T09:29:51.768Z,1016.3
2017-08-16T09:30:53.571Z,1016.3
2017-08-16T09:31:55.322Z,1016.3
2017-08-16T09:32:57.062Z,1016.3
2017-08-16T09:33:58.806Z,1016.3
2017-08-16T09:35:00.577Z,1016.3
2017-08-16T09:36:02.302Z,1016.2
2017-08-16T09:37:04.063Z,1016.2
2017-08-16T09:38:05.797Z,1016.2
2017-08-16T09:39:07.554Z,1016.2
2017-08-16T09:40:09.291Z,1016.2
2017-08-16T09:41:11.032Z,1016.2
2017-08-16T09:42:12.686Z,1016.2
2017-08-16T09:43:14.548Z,1016.2
2017-08-16T09:44:16.276Z,1016.2
2017-08-16T09:45:18.056Z,1016.2
2017-08-16T09:46:21.303Z,1016.2
2017-08-16T09:47:23.081Z,1016.2
2017-08-16T09:48:24.944Z,1016.2
2017-08-16T09:49:26.752Z,1016.1
2017-08-16T09:50:28.501Z,1016.2
2017-08-16T09:51:30.289Z,1016.2
2017-08-16T09:52:32.012Z,1016.2
2017-08-16T09:53:33.780Z,1016.2
2017-08-16T09:54:35.495Z,1016.1
2017-08-16T09:55:37.266Z,1016.1
2017-08-16T09:56:40.842Z,1016.1
2017-08-16T09:57:42.550Z,1016.2
2017-08-16T09:58:44.364Z,1016.1
2017-08-16T09:59:47.823Z,1016.1
2017-08-16T10:00:51.310Z,1016.2
2017-08-16T10:01:54.858Z,1016.2
2017-08-16T10:02:56.539Z,1016.2
2017-08-16T10:03:58.312Z,1016.2
2017-08-16T10:05:00.039Z,1016.2
2017-08-16T10:06:01.814Z,1016.2
2017-08-16T10:07:03.473Z,1016.1
2017-08-16T10:08:05.256Z,1016.1
2017-08-16T10:09:07.043Z,1016.1
2017-08-16T10:10:08.740Z,1016.1
2017-08-16T10:11:10.498Z,1016.1
2017-08-16T10:12:12.157Z,1016.1
2017-08-16T10:13:13.938Z,1016.1
2017-08-16T10:14:15.709Z,1016.1
2017-08-16T10:15:17.516Z,1016.1
2017-08-16T10:16:19.270Z,1016.1
2017-08-16T10:17:21.121Z,1016.0
2017-08-16T10:18:22.885Z,1016.1
2017-08-16T10:19:24.617Z,1016.1
2017-08-16T10:20:26.833Z,1016.0
2017-08-16T10:21:28.802Z,1016.0
2017-08-16T10:22:30.573Z,1016.0
2017-08-16T10:23:32.312Z,1016.0
2017-08-16T10:24:34.011Z,1016.0
2017-08-16T10:25:35.933Z,1016.1
2017-08-16T10:26:37.816Z,1016.0
2017-08-16T10:27:39.730Z,1016.0
2017-08-16T10:28:41.469Z,1016.0
2017-08-16T10:29:43.221Z,1016.0
2017-08-16T10:30:45.189Z,1015.9
2017-08-16T10:31:46.910Z,1016.0
2017-08-16T10:32:48.686Z,1015.9
2017-08-16T10:33:50.958Z,1015.9
2017-08-16T10:34:52.782Z,1016.0
2017-08-16T10:35:54.537Z,1016.0
2017-08-16T10:36:56.404Z,1016.0
2017-08-16T10:37:58.143Z,1015.9
2017-08-16T10:38:59.968Z,1015.9
2017-08-16T10:40:01.824Z,1015.9
2017-08-16T10:41:03.754Z,1015.9
2017-08-16T10:42:05.513Z,1015.9
2017-08-16T10:43:07.303Z,1015.9
2017-08-16T10:44:09.373Z,1015.9
2017-08-16T10:45:11.101Z,1015.9
2017-08-16T10:46:12.755Z,1015.9
2017-08-16T10:47:14.534Z,1015.8
2017-08-16T10:48:16.290Z,1015.8
2017-08-16T10:49:18.051Z,1015.8
2017-08-16T10:50:19.800Z,1015.9
2017-08-16T10:51:21.660Z,1015.9
2017-08-16T10:52:23.397Z,1015.9
2017-08-16T10:53:25.268Z,1015.9
2017-08-16T10:54:27.062Z,1015.9
2017-08-16T10:55:29.829Z,1016.0
2017-08-16T10:56:31.580Z,1015.9
2017-08-16T10:57:33.333Z,1015.9
2017-08-16T10:58:35.099Z,1016.0
2017-08-16T10:59:36.942Z,1016.0
2017-08-16T11:00:38.683Z,1016.0
2017-08-16T11:01:40.374Z,1016.0
2017-08-16T11:02:42.129Z,1015.9
2017-08-16T11:03:43.866Z,1015.9
2017-08-16T11:04:45.619Z,1015.9
2017-08-16T11:05:47.629Z,1015.8
2017-08-16T11:06:49.278Z,1015.8
2017-08-16T11:07:51.031Z,1015.9
2017-08-16T11:08:52.692Z,1015.9
2017-08-16T11:09:54.418Z,1015.9
2017-08-16T11:10:56.100Z,1015.9
2017-08-16T11:11:57.851Z,1015.9
2017-08-16T11:12:59.682Z,1015.9
2017-08-16T11:14:01.483Z,1015.9
2017-08-16T11:15:03.209Z,1015.9
2017-08-16T11:16:05.212Z,1015.9
2017-08-16T11:17:06.876Z,1015.9
2017-08-16T11:18:08.717Z,1015.9
2017-08-16T11:19:10.457Z,1015.9
2017-08-16T11:20:12.212Z,1015.9
2017-08-16T11:21:13.936Z,1015.9
2017-08-16T11:22:15.685Z,1015.9
2017-08-16T11:23:17.446Z,1015.8
2017-08-16T11:24:19.222Z,1015.9
2017-08-16T11:25:20.965Z,1015.9
2017-08-16T11:26:22.802Z,1015.9
2017-08-16T11:27:24.540Z,1015.9
2017-08-16T11:28:26.284Z,1015.8
2017-08-16T11:29:28.601Z,1015.8
2017-08-16T11:30:30.333Z,1015.8
2017-08-16T11:31:32.101Z,1015.8
2017-08-16T11:32:34.327Z,1015.8
2017-08-16T11:33:35.967Z,1015.8
2017-08-16T11:34:37.645Z,1015.8
2017-08-16T11:35:39.443Z,1015.8
2017-08-16T11:36:41.186Z,1015.8
2017-08-16T11:37:42.842Z,1015.8
2017-08-16T11:38:44.586Z,1015.8
2017-08-16T11:39:46.339Z,1015.8
2017-08-16T11:40:48.024Z,1015.9
2017-08-16T11:41:49.781Z,1015.8
2017-08-16T11:42:51.502Z,1015.8
2017-08-16T11:43:53.328Z,1015.9
2017-08-16T11:44:55.072Z,1015.9
2017-08-16T11:45:56.794Z,1015.9
2017-08-16T11:46:58.517Z,1015.9
2017-08-16T11:48:00.262Z,1015.9
2017-08-16T11:49:02.137Z,1015.9
2017-08-16T11:50:03.878Z,1015.9
2017-08-16T11:51:05.719Z,1015.9
2017-08-16T11:52:07.372Z,1015.9
2017-08-16T11:53:09.259Z,1015.9
2017-08-16T11:54:10.980Z,1015.9
2017-08-16T11:55:12.735Z,1015.9
2017-08-16T11:56:14.462Z,1015.9
2017-08-16T11:57:16.272Z,1015.9
2017-08-16T11:58:18.019Z,1015.8
2017-08-16T11:59:19.739Z,1015.9
2017-08-16T12:00:21.452Z,1015.9
2017-08-16T12:01:23.329Z,1015.9
2017-08-16T12:02:25.081Z,1015.8
2017-08-16T12:03:26.841Z,1015.8
2017-08-16T12:04:28.578Z,1015.8
2017-08-16T12:05:30.320Z,1015.8
2017-08-16T12:06:32.061Z,1015.8
2017-08-16T12:07:33.844Z,1015.8
2017-08-16T12:08:35.600Z,1015.8
2017-08-16T12:09:37.436Z,1015.8
2017-08-16T12:10:39.096Z,1015.7
2017-08-16T12:11:40.961Z,1015.7
2017-08-16T12:12:42.681Z,1015.8
2017-08-16T12:13:44.538Z,1015.7
2017-08-16T12:14:46.318Z,1015.7
2017-08-16T12:15:48.071Z,1015.7
2017-08-16T12:16:49.748Z,1015.7
2017-08-16T12:17:51.569Z,1015.7
2017-08-16T12:18:53.258Z,1015.7
2017-08-16T12:19:55.115Z,1015.7
2017-08-16T12:20:56.907Z,1015.7
2017-08-16T12:21:58.658Z,1015.7
2017-08-16T12:23:00.873Z,1015.7
2017-08-16T12:24:03.826Z,1015.7
2017-08-16T12:25:05.590Z,1015.6
2017-08-16T12:26:07.321Z,1015.7
2017-08-16T12:27:09.081Z,1015.7
2017-08-16T12:28:10.745Z,1015.7
2017-08-16T12:29:12.587Z,1015.7
2017-08-16T12:30:14.318Z,1015.7
2017-08-16T12:31:16.108Z,1015.7
2017-08-16T12:32:17.840Z,1015.7
2017-08-16T12:33:19.509Z,1015.7
2017-08-16T12:34:21.244Z,1015.7
2017-08-16T12:35:23.012Z,1015.6
2017-08-16T12:36:24.789Z,1015.6
2017-08-16T12:37:26.607Z,1015.6
2017-08-16T12:38:28.798Z,1015.6
2017-08-16T12:39:31.520Z,1015.6
2017-08-16T12:40:33.260Z,1015.6
2017-08-16T12:41:34.992Z,1015.6
2017-08-16T12:42:36.845Z,1015.6
2017-08-16T12:43:38.608Z,1015.6
2017-08-16T12:44:40.429Z,1015.6
2017-08-16T12:45:42.221Z,1015.6
2017-08-16T12:46:44.024Z,1015.5
2017-08-16T12:47:45.728Z,1015.5
2017-08-16T12:48:47.408Z,1015.5
2017-08-16T12:49:49.062Z,1015.5
2017-08-16T12:50:50.888Z,1015.5
2017-08-16T12:51:52.615Z,1015.4
2017-08-16T12:52:54.414Z,1015.5
2017-08-16T12:53:56.148Z,1015.5
2017-08-16T12:54:58.023Z,1015.5
2017-08-16T12:55:59.769Z,1015.5
2017-08-16T12:57:01.572Z,1015.5
2017-08-16T12:58:03.251Z,1015.5
2017-08-16T12:59:04.928Z,1015.5
2017-08-16T13:00:06.626Z,1015.5
2017-08-16T13:01:08.351Z,1015.5
2017-08-16T13:02:10.121Z,1015.5
2017-08-16T13:03:11.870Z,1015.5
2017-08-16T13:04:13.592Z,1015.5
2017-08-16T13:05:15.363Z,1015.4
2017-08-16T13:06:17.121Z,1015.4
2017-08-16T13:07:18.932Z,1015.4
2017-08-16T13:08:21.891Z,1015.4
2017-08-16T13:09:23.704Z,1015.4
2017-08-16T13:10:25.489Z,1015.4
2017-08-16T13:11:27.332Z,1015.4
2017-08-16T13:12:29.169Z,1015.3
2017-08-16T13:13:30.996Z,1015.3
2017-08-16T13:14:32.728Z,1015.3
2017-08-16T13:15:34.520Z,1015.3
2017-08-16T13:16:36.190Z,1015.3
2017-08-16T13:17:38.062Z,1015.2
2017-08-16T13:18:39.790Z,1015.2
2017-08-16T13:19:41.520Z,1015.2
2017-08-16T13:20:43.241Z,1015.2
2017-08-16T13:21:45.084Z,1015.2
2017-08-16T13:22:46.879Z,1015.2
2017-08-16T13:23:48.668Z,1015.2
2017-08-16T13:24:50.358Z,1015.2
2017-08-16T13:25:52.179Z,1015.1
2017-08-16T13:26:53.915Z,1015.1
2017-08-16T13:27:55.754Z,1015.1
2017-08-16T13:28:57.510Z,1015.1
2017-08-16T13:30:00.404Z,1015.0